sensor_id;sensor_type;location;lat;lon;timestamp;temperature;humidity
68746;SHT31;73143;45.456;11.064;2024-02-28T00:01:01;12.71;79.60
68746;SHT31;73143;45.456;11.064;2024-02-28T00:03:38;12.71;79.93
68746;SHT31;73143;45.456;11.064;2024-02-28T00:06:17;12.68;79.78
68746;SHT31;73143;45.456;11.064;2024-02-28T00:08:57;12.70;79.42
68746;SHT31;73143;45.456;11.064;2024-02-28T00:11:35;12.72;79.52
68746;SHT31;73143;45.456;11.064;2024-02-28T00:14:17;12.75;79.04
68746;SHT31;73143;45.456;11.064;2024-02-28T00:16:54;12.79;78.88
68746;SHT31;73143;45.456;11.064;2024-02-28T00:19:30;12.79;79.19
68746;SHT31;73143;45.456;11.064;2024-02-28T00:22:08;12.78;79.47
68746;SHT31;73143;45.456;11.064;2024-02-28T00:24:46;12.76;79.47
68746;SHT31;73143;45.456;11.064;2024-02-28T00:27:26;12.76;79.49
68746;SHT31;73143;45.456;11.064;2024-02-28T00:30:05;12.75;79.45
68746;SHT31;73143;45.456;11.064;2024-02-28T00:32:47;12.69;80.11
68746;SHT31;73143;45.456;11.064;2024-02-28T00:35:24;12.65;79.96
68746;SHT31;73143;45.456;11.064;2024-02-28T00:38:05;12.63;80.24
68746;SHT31;73143;45.456;11.064;2024-02-28T00:40:43;12.62;80.45
68746;SHT31;73143;45.456;11.064;2024-02-28T00:43:20;12.59;80.77
68746;SHT31;73143;45.456;11.064;2024-02-28T00:46:00;12.61;80.16
68746;SHT31;73143;45.456;11.064;2024-02-28T00:48:40;12.62;80.28
68746;SHT31;73143;45.456;11.064;2024-02-28T00:51:21;12.65;80.07
68746;SHT31;73143;45.456;11.064;2024-02-28T00:53:58;12.67;79.81
68746;SHT31;73143;45.456;11.064;2024-02-28T00:56:35;12.73;79.45
68746;SHT31;73143;45.456;11.064;2024-02-28T00:59:13;12.79;78.99
68746;SHT31;73143;45.456;11.064;2024-02-28T01:01:50;12.85;78.75
68746;SHT31;73143;45.456;11.064;2024-02-28T01:04:26;12.88;78.86
68746;SHT31;73143;45.456;11.064;2024-02-28T01:07:04;12.90;78.78
68746;SHT31;73143;45.456;11.064;2024-02-28T01:09:42;12.92;78.86
68746;SHT31;73143;45.456;11.064;2024-02-28T01:12:19;12.92;78.85
68746;SHT31;73143;45.456;11.064;2024-02-28T01:14:57;12.94;78.80
68746;SHT31;73143;45.456;11.064;2024-02-28T01:17:34;12.97;78.82
68746;SHT31;73143;45.456;11.064;2024-02-28T01:20:12;12.95;79.36
68746;SHT31;73143;45.456;11.064;2024-02-28T01:22:53;12.91;79.66
68746;SHT31;73143;45.456;11.064;2024-02-28T01:25:30;12.89;79.69
68746;SHT31;73143;45.456;11.064;2024-02-28T01:28:08;12.85;80.16
68746;SHT31;73143;45.456;11.064;2024-02-28T01:30:46;12.77;80.91
68746;SHT31;73143;45.456;11.064;2024-02-28T01:33:24;12.69;81.08
68746;SHT31;73143;45.456;11.064;2024-02-28T01:36:01;12.64;80.98
68746;SHT31;73143;45.456;11.064;2024-02-28T01:38:43;12.63;80.42
68746;SHT31;73143;45.456;11.064;2024-02-28T01:41:22;12.65;80.61
68746;SHT31;73143;45.456;11.064;2024-02-28T01:43:58;12.63;80.56
68746;SHT31;73143;45.456;11.064;2024-02-28T01:46:35;12.65;80.62
68746;SHT31;73143;45.456;11.064;2024-02-28T01:49:13;12.65;80.63
68746;SHT31;73143;45.456;11.064;2024-02-28T01:51:51;12.64;80.53
68746;SHT31;73143;45.456;11.064;2024-02-28T01:54:30;12.69;79.43
68746;SHT31;73143;45.456;11.064;2024-02-28T01:57:08;12.75;79.69
68746;SHT31;73143;45.456;11.064;2024-02-28T01:59:46;12.74;79.88
68746;SHT31;73143;45.456;11.064;2024-02-28T02:02:24;12.71;80.18
68746;SHT31;73143;45.456;11.064;2024-02-28T02:05:02;12.69;80.19
68746;SHT31;73143;45.456;11.064;2024-02-28T02:07:45;12.66;80.23
68746;SHT31;73143;45.456;11.064;2024-02-28T02:10:24;12.67;79.88
68746;SHT31;73143;45.456;11.064;2024-02-28T02:13:06;12.70;79.79
68746;SHT31;73143;45.456;11.064;2024-02-28T02:15:44;12.70;79.56
68746;SHT31;73143;45.456;11.064;2024-02-28T02:18:22;12.74;79.28
68746;SHT31;73143;45.456;11.064;2024-02-28T02:21:02;12.77;79.14
68746;SHT31;73143;45.456;11.064;2024-02-28T02:23:44;12.80;78.82
68746;SHT31;73143;45.456;11.064;2024-02-28T02:26:22;12.83;78.80
68746;SHT31;73143;45.456;11.064;2024-02-28T02:29:00;12.86;78.54
68746;SHT31;73143;45.456;11.064;2024-02-28T02:31:39;12.90;78.00
68746;SHT31;73143;45.456;11.064;2024-02-28T02:34:18;12.93;77.46
68746;SHT31;73143;45.456;11.064;2024-02-28T02:36:55;12.98;77.04
68746;SHT31;73143;45.456;11.064;2024-02-28T02:39:32;13.04;77.13
68746;SHT31;73143;45.456;11.064;2024-02-28T02:42:10;13.04;77.31
68746;SHT31;73143;45.456;11.064;2024-02-28T02:44:49;13.02;76.86
68746;SHT31;73143;45.456;11.064;2024-02-28T02:47:26;13.07;76.72
68746;SHT31;73143;45.456;11.064;2024-02-28T02:50:04;13.06;76.90
68746;SHT31;73143;45.456;11.064;2024-02-28T02:52:42;13.05;77.01
68746;SHT31;73143;45.456;11.064;2024-02-28T02:55:19;13.05;76.74
68746;SHT31;73143;45.456;11.064;2024-02-28T02:57:58;13.08;76.70
68746;SHT31;73143;45.456;11.064;2024-02-28T03:00:35;13.09;76.61
68746;SHT31;73143;45.456;11.064;2024-02-28T03:03:13;13.10;76.74
68746;SHT31;73143;45.456;11.064;2024-02-28T03:05:51;13.07;77.06
68746;SHT31;73143;45.456;11.064;2024-02-28T03:08:27;13.06;76.78
68746;SHT31;73143;45.456;11.064;2024-02-28T03:11:03;13.06;77.05
68746;SHT31;73143;45.456;11.064;2024-02-28T03:13:40;13.07;76.59
68746;SHT31;73143;45.456;11.064;2024-02-28T03:16:17;13.11;76.50
68746;SHT31;73143;45.456;11.064;2024-02-28T03:18:56;13.12;76.33
68746;SHT31;73143;45.456;11.064;2024-02-28T03:21:35;13.14;76.57
68746;SHT31;73143;45.456;11.064;2024-02-28T03:24:13;13.10;76.43
68746;SHT31;73143;45.456;11.064;2024-02-28T03:26:51;13.12;76.25
68746;SHT31;73143;45.456;11.064;2024-02-28T03:29:28;13.11;76.55
68746;SHT31;73143;45.456;11.064;2024-02-28T03:32:07;13.10;76.39
68746;SHT31;73143;45.456;11.064;2024-02-28T03:34:46;13.10;76.36
68746;SHT31;73143;45.456;11.064;2024-02-28T03:37:23;13.11;76.25
68746;SHT31;73143;45.456;11.064;2024-02-28T03:40:02;13.11;76.19
68746;SHT31;73143;45.456;11.064;2024-02-28T03:42:43;13.12;76.16
68746;SHT31;73143;45.456;11.064;2024-02-28T03:45:22;13.13;75.88
68746;SHT31;73143;45.456;11.064;2024-02-28T03:48:03;13.15;75.84
68746;SHT31;73143;45.456;11.064;2024-02-28T03:50:42;13.17;75.91
68746;SHT31;73143;45.456;11.064;2024-02-28T03:53:19;13.15;75.78
68746;SHT31;73143;45.456;11.064;2024-02-28T03:55:56;13.16;75.86
68746;SHT31;73143;45.456;11.064;2024-02-28T03:58:34;13.16;75.70
68746;SHT31;73143;45.456;11.064;2024-02-28T04:01:12;13.18;75.47
68746;SHT31;73143;45.456;11.064;2024-02-28T04:03:50;13.20;75.40
68746;SHT31;73143;45.456;11.064;2024-02-28T04:06:29;13.21;75.49
68746;SHT31;73143;45.456;11.064;2024-02-28T04:09:06;13.21;75.30
68746;SHT31;73143;45.456;11.064;2024-02-28T04:11:43;13.20;75.36
68746;SHT31;73143;45.456;11.064;2024-02-28T04:14:20;13.22;75.32
68746;SHT31;73143;45.456;11.064;2024-02-28T04:16:57;13.21;75.34
68746;SHT31;73143;45.456;11.064;2024-02-28T04:19:35;13.21;75.03
68746;SHT31;73143;45.456;11.064;2024-02-28T04:22:13;13.23;75.14
68746;SHT31;73143;45.456;11.064;2024-02-28T04:24:51;13.22;75.17
68746;SHT31;73143;45.456;11.064;2024-02-28T04:27:30;13.23;75.10
68746;SHT31;73143;45.456;11.064;2024-02-28T04:30:08;13.23;75.03
68746;SHT31;73143;45.456;11.064;2024-02-28T04:32:47;13.25;74.79
68746;SHT31;73143;45.456;11.064;2024-02-28T04:35:24;13.28;74.51
68746;SHT31;73143;45.456;11.064;2024-02-28T04:38:03;13.32;74.40
68746;SHT31;73143;45.456;11.064;2024-02-28T04:40:40;13.34;74.47
68746;SHT31;73143;45.456;11.064;2024-02-28T04:43:19;13.36;74.47
68746;SHT31;73143;45.456;11.064;2024-02-28T04:45:55;13.35;74.45
68746;SHT31;73143;45.456;11.064;2024-02-28T04:48:32;13.34;74.65
68746;SHT31;73143;45.456;11.064;2024-02-28T04:51:09;13.32;74.55
68746;SHT31;73143;45.456;11.064;2024-02-28T04:53:49;13.32;74.50
68746;SHT31;73143;45.456;11.064;2024-02-28T04:56:26;13.32;74.57
68746;SHT31;73143;45.456;11.064;2024-02-28T04:59:03;13.31;74.46
68746;SHT31;73143;45.456;11.064;2024-02-28T05:01:42;13.31;74.35
68746;SHT31;73143;45.456;11.064;2024-02-28T05:04:20;13.32;74.30
68746;SHT31;73143;45.456;11.064;2024-02-28T05:06:59;13.34;74.17
68746;SHT31;73143;45.456;11.064;2024-02-28T05:09:37;13.35;73.93
68746;SHT31;73143;45.456;11.064;2024-02-28T05:12:15;13.38;74.00
68746;SHT31;73143;45.456;11.064;2024-02-28T05:14:52;13.37;74.19
68746;SHT31;73143;45.456;11.064;2024-02-28T05:17:30;13.37;74.17
68746;SHT31;73143;45.456;11.064;2024-02-28T05:20:11;13.35;74.38
68746;SHT31;73143;45.456;11.064;2024-02-28T05:22:49;13.33;74.16
68746;SHT31;73143;45.456;11.064;2024-02-28T05:25:27;13.33;74.12
68746;SHT31;73143;45.456;11.064;2024-02-28T05:28:05;13.33;74.13
68746;SHT31;73143;45.456;11.064;2024-02-28T05:30:42;13.35;73.71
68746;SHT31;73143;45.456;11.064;2024-02-28T05:33:19;13.38;73.63
68746;SHT31;73143;45.456;11.064;2024-02-28T05:35:58;13.39;73.76
68746;SHT31;73143;45.456;11.064;2024-02-28T05:38:38;13.38;73.75
68746;SHT31;73143;45.456;11.064;2024-02-28T05:41:16;13.38;73.50
68746;SHT31;73143;45.456;11.064;2024-02-28T05:43:55;13.38;73.31
68746;SHT31;73143;45.456;11.064;2024-02-28T05:46:32;13.41;73.10
68746;SHT31;73143;45.456;11.064;2024-02-28T05:49:09;13.43;72.93
68746;SHT31;73143;45.456;11.064;2024-02-28T05:51:46;13.43;72.63
68746;SHT31;73143;45.456;11.064;2024-02-28T05:54:24;13.50;72.30
68746;SHT31;73143;45.456;11.064;2024-02-28T05:57:03;13.52;71.98
68746;SHT31;73143;45.456;11.064;2024-02-28T05:59:41;13.56;71.63
68746;SHT31;73143;45.456;11.064;2024-02-28T06:02:18;13.63;71.21
68746;SHT31;73143;45.456;11.064;2024-02-28T06:04:56;13.68;71.42
68746;SHT31;73143;45.456;11.064;2024-02-28T06:07:33;13.69;71.45
68746;SHT31;73143;45.456;11.064;2024-02-28T06:10:12;13.71;71.43
68746;SHT31;73143;45.456;11.064;2024-02-28T06:12:53;13.70;71.60
68746;SHT31;73143;45.456;11.064;2024-02-28T06:15:32;13.70;71.66
68746;SHT31;73143;45.456;11.064;2024-02-28T06:18:09;13.71;71.62
68746;SHT31;73143;45.456;11.064;2024-02-28T06:20:47;13.72;71.64
68746;SHT31;73143;45.456;11.064;2024-02-28T06:23:25;13.74;71.53
68746;SHT31;73143;45.456;11.064;2024-02-28T06:26:02;13.75;71.28
68746;SHT31;73143;45.456;11.064;2024-02-28T06:28:46;13.80;70.84
68746;SHT31;73143;45.456;11.064;2024-02-28T06:31:22;13.87;70.27
68746;SHT31;73143;45.456;11.064;2024-02-28T06:34:00;13.92;69.96
68746;SHT31;73143;45.456;11.064;2024-02-28T06:36:40;13.95;69.77
68746;SHT31;73143;45.456;11.064;2024-02-28T06:39:17;13.99;69.75
68746;SHT31;73143;45.456;11.064;2024-02-28T06:41:54;13.98;69.66
68746;SHT31;73143;45.456;11.064;2024-02-28T06:44:31;14.00;69.35
68746;SHT31;73143;45.456;11.064;2024-02-28T06:47:09;14.02;69.36
68746;SHT31;73143;45.456;11.064;2024-02-28T06:49:47;14.04;69.28
68746;SHT31;73143;45.456;11.064;2024-02-28T06:52:27;14.05;68.91
68746;SHT31;73143;45.456;11.064;2024-02-28T06:55:04;14.09;68.81
68746;SHT31;73143;45.456;11.064;2024-02-28T06:57:43;14.11;68.67
68746;SHT31;73143;45.456;11.064;2024-02-28T07:00:22;14.15;68.62
68746;SHT31;73143;45.456;11.064;2024-02-28T07:02:58;14.19;68.77
68746;SHT31;73143;45.456;11.064;2024-02-28T07:05:36;14.19;68.97
68746;SHT31;73143;45.456;11.064;2024-02-28T07:08:13;14.20;69.04
68746;SHT31;73143;45.456;11.064;2024-02-28T07:10:51;14.23;68.83
68746;SHT31;73143;45.456;11.064;2024-02-28T07:13:28;14.24;68.92
68746;SHT31;73143;45.456;11.064;2024-02-28T07:16:06;14.25;69.05
68746;SHT31;73143;45.456;11.064;2024-02-28T07:18:43;14.26;69.13
68746;SHT31;73143;45.456;11.064;2024-02-28T07:21:21;14.29;69.05
68746;SHT31;73143;45.456;11.064;2024-02-28T07:24:00;14.30;69.13
68746;SHT31;73143;45.456;11.064;2024-02-28T07:26:38;14.31;69.04
68746;SHT31;73143;45.456;11.064;2024-02-28T07:29:18;14.32;69.19
68746;SHT31;73143;45.456;11.064;2024-02-28T07:31:55;14.31;69.08
68746;SHT31;73143;45.456;11.064;2024-02-28T07:34:33;14.33;68.78
68746;SHT31;73143;45.456;11.064;2024-02-28T07:37:11;14.36;68.41
68746;SHT31;73143;45.456;11.064;2024-02-28T07:39:48;14.40;67.99
68746;SHT31;73143;45.456;11.064;2024-02-28T07:42:28;14.41;68.19
68746;SHT31;73143;45.456;11.064;2024-02-28T07:45:06;14.42;67.78
68746;SHT31;73143;45.456;11.064;2024-02-28T07:47:45;14.44;67.64
68746;SHT31;73143;45.456;11.064;2024-02-28T07:50:21;14.49;67.46
68746;SHT31;73143;45.456;11.064;2024-02-28T07:52:58;14.56;67.04
68746;SHT31;73143;45.456;11.064;2024-02-28T07:55:36;14.62;67.51
68746;SHT31;73143;45.456;11.064;2024-02-28T07:58:14;14.63;67.25
68746;SHT31;73143;45.456;11.064;2024-02-28T08:00:51;14.66;67.18
68746;SHT31;73143;45.456;11.064;2024-02-28T08:03:27;14.69;67.34
68746;SHT31;73143;45.456;11.064;2024-02-28T08:06:06;14.69;67.10
68746;SHT31;73143;45.456;11.064;2024-02-28T08:08:43;14.73;66.83
68746;SHT31;73143;45.456;11.064;2024-02-28T08:11:21;14.76;66.68
68746;SHT31;73143;45.456;11.064;2024-02-28T08:13:58;14.77;66.53
68746;SHT31;73143;45.456;11.064;2024-02-28T08:16:34;14.80;66.28
68746;SHT31;73143;45.456;11.064;2024-02-28T08:19:14;14.82;66.14
68746;SHT31;73143;45.456;11.064;2024-02-28T08:21:51;14.84;66.41
68746;SHT31;73143;45.456;11.064;2024-02-28T08:24:28;14.85;66.65
68746;SHT31;73143;45.456;11.064;2024-02-28T08:27:07;14.86;66.83
68746;SHT31;73143;45.456;11.064;2024-02-28T08:29:46;14.88;66.86
68746;SHT31;73143;45.456;11.064;2024-02-28T08:32:24;14.88;66.91
68746;SHT31;73143;45.456;11.064;2024-02-28T08:35:02;14.89;66.47
68746;SHT31;73143;45.456;11.064;2024-02-28T08:37:42;14.92;66.32
68746;SHT31;73143;45.456;11.064;2024-02-28T08:40:19;14.93;66.71
68746;SHT31;73143;45.456;11.064;2024-02-28T08:42:56;14.95;66.94
68746;SHT31;73143;45.456;11.064;2024-02-28T08:45:33;14.99;66.96
68746;SHT31;73143;45.456;11.064;2024-02-28T08:48:12;15.01;67.11
68746;SHT31;73143;45.456;11.064;2024-02-28T08:50:50;15.03;66.84
68746;SHT31;73143;45.456;11.064;2024-02-28T08:53:27;15.06;67.02
68746;SHT31;73143;45.456;11.064;2024-02-28T08:56:05;15.09;67.02
68746;SHT31;73143;45.456;11.064;2024-02-28T08:58:46;15.15;67.08
68746;SHT31;73143;45.456;11.064;2024-02-28T09:01:23;15.20;67.16
68746;SHT31;73143;45.456;11.064;2024-02-28T09:04:00;15.25;66.53
68746;SHT31;73143;45.456;11.064;2024-02-28T09:06:37;15.32;66.76
68746;SHT31;73143;45.456;11.064;2024-02-28T09:09:16;15.40;66.50
68746;SHT31;73143;45.456;11.064;2024-02-28T09:11:53;15.48;66.43
68746;SHT31;73143;45.456;11.064;2024-02-28T09:14:32;15.51;65.93
68746;SHT31;73143;45.456;11.064;2024-02-28T09:17:12;15.54;66.11
68746;SHT31;73143;45.456;11.064;2024-02-28T09:19:49;15.55;66.15
68746;SHT31;73143;45.456;11.064;2024-02-28T09:22:26;15.55;66.41
68746;SHT31;73143;45.456;11.064;2024-02-28T09:25:03;15.57;66.24
68746;SHT31;73143;45.456;11.064;2024-02-28T09:27:45;15.59;65.97
68746;SHT31;73143;45.456;11.064;2024-02-28T09:30:23;15.64;65.49
68746;SHT31;73143;45.456;11.064;2024-02-28T09:33:13;15.70;65.09
68746;SHT31;73143;45.456;11.064;2024-02-28T09:35:51;15.73;64.78
68746;SHT31;73143;45.456;11.064;2024-02-28T09:38:28;15.75;65.07
68746;SHT31;73143;45.456;11.064;2024-02-28T09:41:07;15.76;65.20
68746;SHT31;73143;45.456;11.064;2024-02-28T09:43:48;15.76;65.51
68746;SHT31;73143;45.456;11.064;2024-02-28T09:46:27;15.76;65.51
68746;SHT31;73143;45.456;11.064;2024-02-28T09:49:06;15.75;64.90
68746;SHT31;73143;45.456;11.064;2024-02-28T09:51:44;15.74;65.06
68746;SHT31;73143;45.456;11.064;2024-02-28T09:54:22;15.73;65.12
68746;SHT31;73143;45.456;11.064;2024-02-28T09:56:59;15.70;65.02
68746;SHT31;73143;45.456;11.064;2024-02-28T09:59:39;15.67;65.00
68746;SHT31;73143;45.456;11.064;2024-02-28T10:02:24;15.64;65.10
68746;SHT31;73143;45.456;11.064;2024-02-28T10:05:03;15.61;64.90
68746;SHT31;73143;45.456;11.064;2024-02-28T10:07:43;15.56;64.41
68746;SHT31;73143;45.456;11.064;2024-02-28T10:10:21;15.49;64.71
68746;SHT31;73143;45.456;11.064;2024-02-28T10:13:00;15.36;65.94
68746;SHT31;73143;45.456;11.064;2024-02-28T10:15:38;15.22;67.70
68746;SHT31;73143;45.456;11.064;2024-02-28T10:18:15;15.05;68.89
68746;SHT31;73143;45.456;11.064;2024-02-28T10:20:54;14.83;69.75
68746;SHT31;73143;45.456;11.064;2024-02-28T10:23:32;14.60;71.49
68746;SHT31;73143;45.456;11.064;2024-02-28T10:26:11;14.40;73.03
68746;SHT31;73143;45.456;11.064;2024-02-28T10:28:48;14.26;73.66
68746;SHT31;73143;45.456;11.064;2024-02-28T10:31:25;14.19;74.33
68746;SHT31;73143;45.456;11.064;2024-02-28T10:34:03;14.15;74.68
68746;SHT31;73143;45.456;11.064;2024-02-28T10:36:41;14.17;75.05
68746;SHT31;73143;45.456;11.064;2024-02-28T10:39:17;14.18;75.62
68746;SHT31;73143;45.456;11.064;2024-02-28T10:41:59;14.21;75.42
68746;SHT31;73143;45.456;11.064;2024-02-28T10:44:38;14.27;74.56
68746;SHT31;73143;45.456;11.064;2024-02-28T10:47:15;14.35;73.64
68746;SHT31;73143;45.456;11.064;2024-02-28T10:49:54;14.48;72.38
68746;SHT31;73143;45.456;11.064;2024-02-28T10:52:32;14.56;72.34
68746;SHT31;73143;45.456;11.064;2024-02-28T10:55:17;14.61;72.43
68746;SHT31;73143;45.456;11.064;2024-02-28T10:58:01;14.63;72.15
68746;SHT31;73143;45.456;11.064;2024-02-28T11:00:41;14.66;71.52
68746;SHT31;73143;45.456;11.064;2024-02-28T11:03:18;14.69;71.60
68746;SHT31;73143;45.456;11.064;2024-02-28T11:05:56;14.71;70.99
68746;SHT31;73143;45.456;11.064;2024-02-28T11:08:34;14.74;70.42
68746;SHT31;73143;45.456;11.064;2024-02-28T11:11:13;14.72;70.99
68746;SHT31;73143;45.456;11.064;2024-02-28T11:13:55;14.68;71.37
68746;SHT31;73143;45.456;11.064;2024-02-28T11:16:33;14.60;72.37
68746;SHT31;73143;45.456;11.064;2024-02-28T11:19:18;14.54;72.27
68746;SHT31;73143;45.456;11.064;2024-02-28T11:21:55;14.54;71.76
68746;SHT31;73143;45.456;11.064;2024-02-28T11:24:33;14.55;71.95
68746;SHT31;73143;45.456;11.064;2024-02-28T11:27:15;14.56;71.87
68746;SHT31;73143;45.456;11.064;2024-02-28T11:29:54;14.58;71.55
68746;SHT31;73143;45.456;11.064;2024-02-28T11:32:31;14.61;71.82
68746;SHT31;73143;45.456;11.064;2024-02-28T11:35:09;14.60;72.18
68746;SHT31;73143;45.456;11.064;2024-02-28T11:37:47;14.60;71.79
68746;SHT31;73143;45.456;11.064;2024-02-28T11:40:26;14.61;72.03
68746;SHT31;73143;45.456;11.064;2024-02-28T11:43:03;14.60;72.32
68746;SHT31;73143;45.456;11.064;2024-02-28T11:45:41;14.61;71.97
68746;SHT31;73143;45.456;11.064;2024-02-28T11:48:18;14.62;72.12
68746;SHT31;73143;45.456;11.064;2024-02-28T11:50:56;14.61;72.59
68746;SHT31;73143;45.456;11.064;2024-02-28T11:53:33;14.61;72.21
68746;SHT31;73143;45.456;11.064;2024-02-28T11:56:11;14.64;71.69
68746;SHT31;73143;45.456;11.064;2024-02-28T11:58:51;14.64;71.38
68746;SHT31;73143;45.456;11.064;2024-02-28T12:01:38;14.66;71.23
68746;SHT31;73143;45.456;11.064;2024-02-28T12:04:16;14.66;71.06
68746;SHT31;73143;45.456;11.064;2024-02-28T12:06:57;14.66;71.29
68746;SHT31;73143;45.456;11.064;2024-02-28T12:09:34;14.65;71.12
68746;SHT31;73143;45.456;11.064;2024-02-28T12:12:11;14.65;71.15
68746;SHT31;73143;45.456;11.064;2024-02-28T12:14:48;14.65;71.56
68746;SHT31;73143;45.456;11.064;2024-02-28T12:17:30;14.63;71.73
68746;SHT31;73143;45.456;11.064;2024-02-28T12:20:09;14.61;71.79
68746;SHT31;73143;45.456;11.064;2024-02-28T12:22:51;14.61;71.48
68746;SHT31;73143;45.456;11.064;2024-02-28T12:25:27;14.62;71.34
68746;SHT31;73143;45.456;11.064;2024-02-28T12:28:06;14.61;71.46
68746;SHT31;73143;45.456;11.064;2024-02-28T12:30:48;14.59;71.75
68746;SHT31;73143;45.456;11.064;2024-02-28T12:33:25;14.56;72.12
68746;SHT31;73143;45.456;11.064;2024-02-28T12:36:03;14.55;71.91
68746;SHT31;73143;45.456;11.064;2024-02-28T12:38:41;14.55;71.65
68746;SHT31;73143;45.456;11.064;2024-02-28T12:41:17;14.56;71.91
68746;SHT31;73143;45.456;11.064;2024-02-28T12:43:57;14.52;71.99
68746;SHT31;73143;45.456;11.064;2024-02-28T12:46:35;14.50;72.04
68746;SHT31;73143;45.456;11.064;2024-02-28T12:49:12;14.49;71.99
68746;SHT31;73143;45.456;11.064;2024-02-28T12:51:49;14.49;72.22
68746;SHT31;73143;45.456;11.064;2024-02-28T12:54:27;14.49;72.20
68746;SHT31;73143;45.456;11.064;2024-02-28T12:57:06;14.49;71.86
68746;SHT31;73143;45.456;11.064;2024-02-28T12:59:45;14.49;71.64
68746;SHT31;73143;45.456;11.064;2024-02-28T13:02:23;14.50;72.02
68746;SHT31;73143;45.456;11.064;2024-02-28T13:05:00;14.52;71.58
68746;SHT31;73143;45.456;11.064;2024-02-28T13:07:42;14.56;71.71
68746;SHT31;73143;45.456;11.064;2024-02-28T13:10:19;14.59;71.50
68746;SHT31;73143;45.456;11.064;2024-02-28T13:12:57;14.61;71.25
68746;SHT31;73143;45.456;11.064;2024-02-28T13:15:34;14.63;70.74
68746;SHT31;73143;45.456;11.064;2024-02-28T13:18:12;14.65;70.74
68746;SHT31;73143;45.456;11.064;2024-02-28T13:20:50;14.65;70.78
68746;SHT31;73143;45.456;11.064;2024-02-28T13:23:27;14.66;70.64
68746;SHT31;73143;45.456;11.064;2024-02-28T13:26:05;14.65;70.63
68746;SHT31;73143;45.456;11.064;2024-02-28T13:28:47;14.64;70.32
68746;SHT31;73143;45.456;11.064;2024-02-28T13:31:24;14.62;70.41
68746;SHT31;73143;45.456;11.064;2024-02-28T13:34:00;14.52;72.09
68746;SHT31;73143;45.456;11.064;2024-02-28T13:36:37;14.38;73.65
68746;SHT31;73143;45.456;11.064;2024-02-28T13:39:15;14.25;74.35
68746;SHT31;73143;45.456;11.064;2024-02-28T13:41:53;14.16;74.84
68746;SHT31;73143;45.456;11.064;2024-02-28T13:44:29;14.08;75.01
68746;SHT31;73143;45.456;11.064;2024-02-28T13:47:07;14.03;75.33
68746;SHT31;73143;45.456;11.064;2024-02-28T13:49:45;13.99;75.32
68746;SHT31;73143;45.456;11.064;2024-02-28T13:52:22;13.98;75.36
68746;SHT31;73143;45.456;11.064;2024-02-28T13:54:59;13.96;75.34
68746;SHT31;73143;45.456;11.064;2024-02-28T13:57:39;13.95;75.41
68746;SHT31;73143;45.456;11.064;2024-02-28T14:00:19;13.91;75.63
68746;SHT31;73143;45.456;11.064;2024-02-28T14:02:56;13.88;75.80
68746;SHT31;73143;45.456;11.064;2024-02-28T14:05:34;13.85;76.06
68746;SHT31;73143;45.456;11.064;2024-02-28T14:08:10;13.82;75.96
68746;SHT31;73143;45.456;11.064;2024-02-28T14:10:48;13.82;75.23
68746;SHT31;73143;45.456;11.064;2024-02-28T14:13:26;13.84;75.44
68746;SHT31;73143;45.456;11.064;2024-02-28T14:16:03;13.84;75.49
68746;SHT31;73143;45.456;11.064;2024-02-28T14:18:41;13.84;74.99
68746;SHT31;73143;45.456;11.064;2024-02-28T14:21:17;13.85;74.43
68746;SHT31;73143;45.456;11.064;2024-02-28T14:23:55;13.87;73.97
68746;SHT31;73143;45.456;11.064;2024-02-28T14:26:32;13.88;73.70
68746;SHT31;73143;45.456;11.064;2024-02-28T14:29:09;13.91;73.67
68746;SHT31;73143;45.456;11.064;2024-02-28T14:31:45;13.92;73.92
68746;SHT31;73143;45.456;11.064;2024-02-28T14:34:22;13.94;73.86
68746;SHT31;73143;45.456;11.064;2024-02-28T14:37:00;13.97;73.73
68746;SHT31;73143;45.456;11.064;2024-02-28T14:39:37;14.00;73.64
68746;SHT31;73143;45.456;11.064;2024-02-28T14:42:13;14.03;73.70
68746;SHT31;73143;45.456;11.064;2024-02-28T14:44:51;14.06;73.70
68746;SHT31;73143;45.456;11.064;2024-02-28T14:47:28;14.08;73.35
68746;SHT31;73143;45.456;11.064;2024-02-28T14:50:05;14.12;72.92
68746;SHT31;73143;45.456;11.064;2024-02-28T14:52:44;14.18;72.12
68746;SHT31;73143;45.456;11.064;2024-02-28T14:55:20;14.25;72.08
68746;SHT31;73143;45.456;11.064;2024-02-28T14:57:58;14.33;71.12
68746;SHT31;73143;45.456;11.064;2024-02-28T15:00:35;14.42;70.75
68746;SHT31;73143;45.456;11.064;2024-02-28T15:03:15;14.47;71.09
68746;SHT31;73143;45.456;11.064;2024-02-28T15:05:52;14.51;70.63
68746;SHT31;73143;45.456;11.064;2024-02-28T15:08:29;14.53;70.83
68746;SHT31;73143;45.456;11.064;2024-02-28T15:11:07;14.54;70.83
68746;SHT31;73143;45.456;11.064;2024-02-28T15:13:44;14.55;70.33
68746;SHT31;73143;45.456;11.064;2024-02-28T15:16:20;14.57;70.41
68746;SHT31;73143;45.456;11.064;2024-02-28T15:18:57;14.59;70.72
68746;SHT31;73143;45.456;11.064;2024-02-28T15:21:34;14.59;69.93
68746;SHT31;73143;45.456;11.064;2024-02-28T15:24:11;14.64;69.71
68746;SHT31;73143;45.456;11.064;2024-02-28T15:26:50;14.66;69.81
68746;SHT31;73143;45.456;11.064;2024-02-28T15:29:26;14.67;69.99
68746;SHT31;73143;45.456;11.064;2024-02-28T15:32:06;14.69;69.80
68746;SHT31;73143;45.456;11.064;2024-02-28T15:34:42;14.74;69.25
68746;SHT31;73143;45.456;11.064;2024-02-28T15:37:19;14.77;69.34
68746;SHT31;73143;45.456;11.064;2024-02-28T15:39:56;14.80;68.68
68746;SHT31;73143;45.456;11.064;2024-02-28T15:42:35;14.84;68.32
68746;SHT31;73143;45.456;11.064;2024-02-28T15:45:17;14.88;67.65
68746;SHT31;73143;45.456;11.064;2024-02-28T15:47:54;14.93;67.89
68746;SHT31;73143;45.456;11.064;2024-02-28T15:50:32;14.93;68.01
68746;SHT31;73143;45.456;11.064;2024-02-28T15:53:10;14.93;67.56
68746;SHT31;73143;45.456;11.064;2024-02-28T15:55:46;14.95;67.26
68746;SHT31;73143;45.456;11.064;2024-02-28T15:58:23;14.97;67.43
68746;SHT31;73143;45.456;11.064;2024-02-28T16:01:00;14.98;67.25
68746;SHT31;73143;45.456;11.064;2024-02-28T16:03:37;14.99;67.39
68746;SHT31;73143;45.456;11.064;2024-02-28T16:06:13;15.00;67.53
68746;SHT31;73143;45.456;11.064;2024-02-28T16:09:07;14.99;67.65
68746;SHT31;73143;45.456;11.064;2024-02-28T16:11:45;15.01;67.18
68746;SHT31;73143;45.456;11.064;2024-02-28T16:14:23;15.01;67.47
68746;SHT31;73143;45.456;11.064;2024-02-28T16:17:00;15.02;67.48
68746;SHT31;73143;45.456;11.064;2024-02-28T16:19:40;15.02;67.38
68746;SHT31;73143;45.456;11.064;2024-02-28T16:22:16;15.03;67.21